Perry, IA

10:45 PM CST on December 12, 2019 (GMT -0600)
Perry Municipal

Weather History for KPRO - November, 2019

Change the Weather History Date:

Saturday, November 16, 2019

  Actual Average Record
Temperature  
Mean Temperature 36 °F -  
Max Temperature 47 °F 47 °F 72 °F (1953)
Min Temperature 26 °F 25 °F 0 °F (1959)
Degree Days  
Heating Degree Days 28    
Moisture  
Dew Point 22 °F    
Average Humidity 61    
Maximum Humidity 84    
Minimum Humidity 33    
Precipitation  
Precipitation 0.00 in - - ()
Sea Level Pressure  
Sea Level Pressure 30.13 in    
Wind  
Wind Speed 11 mph (SSE)    
Max Wind Speed 21 mph    
Max Gust Speed 26 mph    
Visibility 10 miles    
Events      
Averages and records for this station are not official NWS values.
T = Trace of Precipitation, MM = Missing Value Source: NWS Daily Summary

Daily Weather History Graph

Daily Weather History Graph

Search for Another Location

Airport or City:

Astronomy

Nov. 16, 2019 Rise Set
Actual Time 7:07 AM CST 4:55 PM CST
Civil Twilight 6:37 AM CST 5:25 PM CST
Nautical Twilight 6:03 AM CST 5:58 PM CST
Astronomical Twilight 5:30 AM CST 6:31 PM CST
Moon 8:27 PM CST (11/16) 11:03 AM CST (11/16)
Length of Visible Light 10h 48m
Length of Day
9h 48m
Waning Gibbous, 82% of the Moon is Illuminated
Nov 16
Waning Gibbous
Nov 19
Last Quarter
Nov 26
New
Dec 4
First Quarter
Dec 11
Full

Hourly Weather History & Observations

Time (CST) Temp. Windchill Dew Point Humidity Pressure Visibility Wind Dir Wind Speed Gust Speed Precip Events Conditions
12:15 AM 28.2 °F 20.2 °F 23.4 °F 82% 30.27 in 10.0 mi SSE 8.1 mph - N/A   Clear
12:35 AM 27.9 °F 19.8 °F 23.5 °F 84% 30.27 in 10.0 mi SSE 8.1 mph - N/A   Clear
12:55 AM 27.3 °F 19.1 °F 23.0 °F 84% 30.26 in 10.0 mi SE 8.1 mph - N/A   Clear
1:15 AM 27.1 °F 18.9 °F 22.8 °F 84% 30.26 in 10.0 mi SSE 8.1 mph - N/A   Clear
1:35 AM 26.8 °F 18.5 °F 22.5 °F 84% 30.26 in 10.0 mi SE 8.1 mph - N/A   Clear
1:55 AM 26.6 °F 18.2 °F 22.1 °F 83% 30.26 in 10.0 mi SSE 8.1 mph - N/A   Clear
2:15 AM 26.6 °F 18.2 °F 22.1 °F 83% 30.26 in 10.0 mi SSE 8.1 mph - N/A   Clear
2:35 AM 27.0 °F 19.5 °F 22.1 °F 82% 30.26 in 10.0 mi SSE 6.9 mph - N/A   Clear
2:55 AM 26.2 °F 17.8 °F 21.6 °F 82% 30.25 in 10.0 mi SSE 8.1 mph - N/A   Clear
3:15 AM 27.1 °F 18.2 °F 22.1 °F 81% 30.25 in 10.0 mi SE 9.2 mph - N/A   Clear
3:35 AM 28.4 °F 20.4 °F 22.6 °F 79% 30.24 in 10.0 mi SE 8.1 mph - N/A   Clear
4:15 AM 28.4 °F 20.4 °F 22.3 °F 78% 30.24 in 10.0 mi SE 8.1 mph - N/A   Clear
4:35 AM 27.5 °F 18.6 °F 21.7 °F 79% 30.24 in 10.0 mi SSE 9.2 mph - N/A   Clear
4:55 AM 27.0 °F 17.3 °F 21.2 °F 79% 30.23 in 10.0 mi SSE 10.4 mph - N/A   Clear
5:15 AM 27.5 °F 19.3 °F 21.2 °F 77% 30.23 in 10.0 mi SE 8.1 mph - N/A   Clear
5:35 AM 28.0 °F 20.8 °F 21.2 °F 76% 30.23 in 10.0 mi SE 6.9 mph - N/A   Clear
5:55 AM 28.4 °F 21.2 °F 21.6 °F 76% 30.23 in 10.0 mi SSE 6.9 mph - N/A   Clear
6:15 AM 29.3 °F 20.8 °F 20.8 °F 71% 30.23 in 10.0 mi SE 9.2 mph - N/A   Clear
6:35 AM 28.6 °F 19.9 °F 21.0 °F 73% 30.22 in 10.0 mi SE 9.2 mph - N/A   Clear
6:55 AM 28.4 °F 20.4 °F 20.7 °F 73% 30.23 in 10.0 mi SE 8.1 mph - N/A   Clear
7:15 AM 28.4 °F 19.7 °F 20.8 °F 73% 30.23 in 10.0 mi SSE 9.2 mph - N/A   Clear
7:35 AM 29.3 °F 20.2 °F 21.0 °F 71% 30.23 in 10.0 mi SSE 10.4 mph - N/A   Clear
7:55 AM 29.5 °F 20.4 °F 21.0 °F 71% 30.23 in 10.0 mi SE 10.4 mph - N/A   Clear
8:15 AM 30.0 °F 21.1 °F 20.8 °F 69% 30.23 in 10.0 mi SE 10.4 mph - N/A   Clear
8:35 AM 30.9 °F 21.2 °F 20.3 °F 65% 30.23 in 10.0 mi SE 12.7 mph - N/A   Clear
8:55 AM 31.1 °F 21.9 °F 21.0 °F 66% 30.21 in 10.0 mi SSE 11.5 mph - N/A   Clear
9:15 AM 32.0 °F 23.0 °F 20.8 °F 63% 30.21 in 10.0 mi SSE 11.5 mph - N/A   Clear
9:35 AM 32.9 °F 23.2 °F 20.7 °F 61% 30.20 in 10.0 mi SSE 13.8 mph 18.4 mph N/A   Clear
9:55 AM 33.3 °F 22.8 °F 20.5 °F 59% 30.20 in 10.0 mi SSE 16.1 mph - N/A   Clear
10:15 AM 36.0 °F 26.3 °F 21.0 °F 55% 30.19 in 10.0 mi SSE 16.1 mph - N/A   Clear
10:35 AM 38.1 °F 28.8 °F 21.4 °F 51% 30.19 in 10.0 mi SSE 17.3 mph 20.7 mph N/A   Clear
10:55 AM 40.1 °F 30.7 °F 19.8 °F 44% 30.17 in 10.0 mi SSE 19.6 mph 25.3 mph N/A   Clear
11:15 AM 41.0 °F 32.2 °F 18.9 °F 41% 30.16 in 10.0 mi SSE 18.4 mph 24.2 mph N/A   Clear
11:55 AM 43.2 °F 34.5 °F 18.9 °F 38% 30.12 in 10.0 mi SSE 20.7 mph 25.3 mph N/A   Clear
12:15 PM 44.1 °F 35.9 °F 20.3 °F 39% 30.11 in 10.0 mi SSE 19.6 mph 26.5 mph N/A   Clear
12:35 PM 44.8 °F 37.4 °F 20.1 °F 37% 30.09 in 10.0 mi SSE 17.3 mph 25.3 mph N/A   Clear
12:55 PM 46.2 °F 38.7 °F 20.5 °F 36% 30.08 in 10.0 mi SSE 19.6 mph 24.2 mph N/A   Clear
1:35 PM 47.5 °F - 19.8 °F 33% 30.06 in 10.0 mi SSE 19.6 mph - N/A   Clear
1:55 PM 46.8 °F - 19.4 °F 34% 30.06 in 10.0 mi SSE 19.6 mph - N/A   Clear
2:15 PM 47.1 °F - 20.3 °F 35% 30.04 in 10.0 mi SSE 18.4 mph 23.0 mph N/A   Clear
2:35 PM 46.9 °F - 21.2 °F 36% 30.04 in 10.0 mi SSE 16.1 mph 21.9 mph N/A   Clear
2:55 PM 47.5 °F - 20.8 °F 35% 30.04 in 10.0 mi SSE 17.3 mph 23.0 mph N/A   Clear
3:15 PM 45.7 °F 39.1 °F 22.1 °F 39% 30.02 in 10.0 mi SE 15.0 mph - N/A   Clear
3:35 PM 46.8 °F - 23.2 °F 40% 30.02 in 10.0 mi SSE 15.0 mph - N/A   Clear
3:55 PM 45.5 °F 38.6 °F 21.6 °F 39% 30.01 in 10.0 mi SSE 16.1 mph - N/A   Clear
4:15 PM 44.1 °F 37.4 °F 22.1 °F 42% 30.00 in 10.0 mi SSE 13.8 mph - N/A   Clear
4:35 PM 43.7 °F 36.6 °F 21.2 °F 41% 30.01 in 10.0 mi SSE 15.0 mph - N/A   Clear
4:55 PM 41.9 °F 35.4 °F 22.5 °F 46% 30.00 in 10.0 mi SSE 11.5 mph - N/A   Clear
5:15 PM 41.9 °F 35.0 °F 21.9 °F 45% 30.00 in 10.0 mi SSE 12.7 mph - N/A   Clear
5:35 PM 40.5 °F 34.1 °F 22.8 °F 49% 30.00 in 10.0 mi SSE 10.4 mph - N/A   Clear
5:55 PM 40.3 °F 33.4 °F 23.0 °F 50% 30.01 in 10.0 mi SE 11.5 mph - N/A   Clear
6:15 PM 40.3 °F 33.4 °F 23.2 °F 51% 30.01 in 10.0 mi SE 11.5 mph - N/A   Clear
6:35 PM 39.4 °F 32.7 °F 23.7 °F 54% 30.01 in 10.0 mi SSE 10.4 mph - N/A   Clear
6:55 PM 39.2 °F 31.2 °F 23.2 °F 53% 30.01 in 10.0 mi SSE 13.8 mph - N/A   Clear
7:15 PM 39.4 °F 31.4 °F 23.0 °F 52% 30.01 in 10.0 mi SSE 13.8 mph - N/A   Clear
7:35 PM 39.6 °F 33.0 °F 23.0 °F 52% 30.03 in 10.0 mi SSE 10.4 mph - N/A   Clear
7:55 PM 38.8 °F 33.8 °F 23.0 °F 53% 30.04 in 10.0 mi South 6.9 mph - N/A   Clear
8:15 PM 36.0 °F 30.3 °F 23.7 °F 61% 30.05 in 10.0 mi SSE 6.9 mph - N/A   Clear
8:35 PM 35.8 °F 30.1 °F 23.5 °F 61% 30.04 in 10.0 mi SSE 6.9 mph - N/A   Clear
8:55 PM 34.2 °F 27.5 °F 24.1 °F 67% 30.04 in 10.0 mi SSE 8.1 mph - N/A   Clear
9:35 PM 34.2 °F 26.8 °F 25.0 °F 69% 30.03 in 10.0 mi SSE 9.2 mph - N/A   Clear
9:55 PM 34.7 °F 28.1 °F 25.3 °F 69% 30.03 in 10.0 mi SE 8.1 mph - N/A   Clear
10:15 PM 34.7 °F 28.1 °F 25.5 °F 69% 30.02 in 10.0 mi SE 8.1 mph - N/A   Clear
10:35 PM 35.6 °F 28.6 °F 25.7 °F 67% 30.01 in 10.0 mi SE 9.2 mph - N/A   Clear
10:55 PM 36.0 °F 29.0 °F 26.4 °F 68% 30.01 in 10.0 mi SE 9.2 mph - N/A   Clear
11:15 PM 35.6 °F 29.2 °F 26.6 °F 70% 30.00 in 10.0 mi SSE 8.1 mph - N/A   Clear
11:55 PM 36.1 °F 29.3 °F 27.5 °F 71% 30.00 in 10.0 mi SSE 9.2 mph - N/A   Clear